sensor_id;sensor_type;location;lat;lon;timestamp;temperature;humidity
18160;DHT22;9205;52.032;4.314;2022-07-22T00:01:01;17.70;99.90
18160;DHT22;9205;52.032;4.314;2022-07-22T00:03:29;17.70;99.90
18160;DHT22;9205;52.032;4.314;2022-07-22T00:05:56;17.70;99.90
18160;DHT22;9205;52.032;4.314;2022-07-22T00:08:23;17.60;99.90
18160;DHT22;9205;52.032;4.314;2022-07-22T00:10:52;17.50;99.90
18160;DHT22;9205;52.032;4.314;2022-07-22T00:13:19;17.60;99.90
18160;DHT22;9205;52.032;4.314;2022-07-22T00:15:46;17.50;99.90
18160;DHT22;9205;52.032;4.314;2022-07-22T00:18:13;17.60;99.90
18160;DHT22;9205;52.032;4.314;2022-07-22T00:20:41;17.60;99.90
18160;DHT22;9205;52.032;4.314;2022-07-22T00:23:08;17.70;99.90
18160;DHT22;9205;52.032;4.314;2022-07-22T00:25:35;17.60;99.90
18160;DHT22;9205;52.032;4.314;2022-07-22T00:28:04;17.70;99.90
18160;DHT22;9205;52.032;4.314;2022-07-22T00:30:31;17.70;99.90
18160;DHT22;9205;52.032;4.314;2022-07-22T00:32:58;17.70;99.90
18160;DHT22;9205;52.032;4.314;2022-07-22T00:35:26;17.70;99.90
18160;DHT22;9205;52.032;4.314;2022-07-22T00:37:53;17.70;99.90
18160;DHT22;9205;52.032;4.314;2022-07-22T00:40:23;17.70;99.90
18160;DHT22;9205;52.032;4.314;2022-07-22T00:42:50;17.70;99.90
18160;DHT22;9205;52.032;4.314;2022-07-22T00:45:20;17.80;99.90
18160;DHT22;9205;52.032;4.314;2022-07-22T00:47:47;17.60;99.90
18160;DHT22;9205;52.032;4.314;2022-07-22T00:50:14;17.70;99.90
18160;DHT22;9205;52.032;4.314;2022-07-22T00:52:44;17.60;99.90
18160;DHT22;9205;52.032;4.314;2022-07-22T00:55:13;17.60;99.90
18160;DHT22;9205;52.032;4.314;2022-07-22T00:57:41;17.70;99.90
18160;DHT22;9205;52.032;4.314;2022-07-22T01:00:13;17.60;99.90
18160;DHT22;9205;52.032;4.314;2022-07-22T01:02:44;17.60;99.90
18160;DHT22;9205;52.032;4.314;2022-07-22T01:05:11;17.60;99.90
18160;DHT22;9205;52.032;4.314;2022-07-22T01:07:39;17.60;99.90
18160;DHT22;9205;52.032;4.314;2022-07-22T01:10:07;17.50;99.90
18160;DHT22;9205;52.032;4.314;2022-07-22T01:12:35;17.50;99.90
18160;DHT22;9205;52.032;4.314;2022-07-22T01:15:02;17.40;99.90
18160;DHT22;9205;52.032;4.314;2022-07-22T01:17:30;17.40;99.90
18160;DHT22;9205;52.032;4.314;2022-07-22T01:20:02;17.40;99.90
18160;DHT22;9205;52.032;4.314;2022-07-22T01:22:31;17.40;99.90
18160;DHT22;9205;52.032;4.314;2022-07-22T01:24:58;17.40;99.90
18160;DHT22;9205;52.032;4.314;2022-07-22T01:27:26;17.40;99.90
18160;DHT22;9205;52.032;4.314;2022-07-22T01:29:55;17.40;99.90
18160;DHT22;9205;52.032;4.314;2022-07-22T01:32:22;17.40;99.90
18160;DHT22;9205;52.032;4.314;2022-07-22T01:34:49;17.40;99.90
18160;DHT22;9205;52.032;4.314;2022-07-22T01:37:19;17.40;99.90
18160;DHT22;9205;52.032;4.314;2022-07-22T01:39:47;17.40;99.90
18160;DHT22;9205;52.032;4.314;2022-07-22T01:42:15;17.40;99.90
18160;DHT22;9205;52.032;4.314;2022-07-22T01:44:43;17.50;99.90
18160;DHT22;9205;52.032;4.314;2022-07-22T01:47:10;17.50;99.90
18160;DHT22;9205;52.032;4.314;2022-07-22T01:49:38;17.40;99.90
18160;DHT22;9205;52.032;4.314;2022-07-22T01:52:06;17.40;99.90
18160;DHT22;9205;52.032;4.314;2022-07-22T01:54:35;17.50;99.90
18160;DHT22;9205;52.032;4.314;2022-07-22T01:57:03;17.40;99.90
18160;DHT22;9205;52.032;4.314;2022-07-22T01:59:31;17.40;99.90
18160;DHT22;9205;52.032;4.314;2022-07-22T02:02:00;17.40;99.90
18160;DHT22;9205;52.032;4.314;2022-07-22T02:04:27;17.30;99.90
18160;DHT22;9205;52.032;4.314;2022-07-22T02:06:54;17.40;99.90
18160;DHT22;9205;52.032;4.314;2022-07-22T02:09:22;17.40;99.90
18160;DHT22;9205;52.032;4.314;2022-07-22T02:11:53;17.30;99.90
18160;DHT22;9205;52.032;4.314;2022-07-22T02:14:21;17.30;99.90
18160;DHT22;9205;52.032;4.314;2022-07-22T02:16:49;17.30;99.90
18160;DHT22;9205;52.032;4.314;2022-07-22T02:19:17;17.40;99.90
18160;DHT22;9205;52.032;4.314;2022-07-22T02:21:44;17.30;99.90
18160;DHT22;9205;52.032;4.314;2022-07-22T02:24:12;17.30;99.90
18160;DHT22;9205;52.032;4.314;2022-07-22T02:26:39;17.30;99.90
18160;DHT22;9205;52.032;4.314;2022-07-22T02:29:08;17.30;99.90
18160;DHT22;9205;52.032;4.314;2022-07-22T02:31:35;17.30;99.90
18160;DHT22;9205;52.032;4.314;2022-07-22T02:34:06;17.30;99.90
18160;DHT22;9205;52.032;4.314;2022-07-22T02:36:34;17.30;99.90
18160;DHT22;9205;52.032;4.314;2022-07-22T02:39:03;17.20;99.90
18160;DHT22;9205;52.032;4.314;2022-07-22T02:41:31;17.30;99.90
18160;DHT22;9205;52.032;4.314;2022-07-22T02:43:59;17.20;99.90
18160;DHT22;9205;52.032;4.314;2022-07-22T02:46:30;17.30;99.90
18160;DHT22;9205;52.032;4.314;2022-07-22T02:49:07;17.20;99.90
18160;DHT22;9205;52.032;4.314;2022-07-22T02:51:35;17.20;99.90
18160;DHT22;9205;52.032;4.314;2022-07-22T02:54:02;17.20;99.90
18160;DHT22;9205;52.032;4.314;2022-07-22T02:56:30;17.20;99.90
18160;DHT22;9205;52.032;4.314;2022-07-22T02:58:58;17.20;99.90
18160;DHT22;9205;52.032;4.314;2022-07-22T03:01:25;17.10;99.90
18160;DHT22;9205;52.032;4.314;2022-07-22T03:04:00;17.10;99.90
18160;DHT22;9205;52.032;4.314;2022-07-22T03:06:30;17.00;99.90
18160;DHT22;9205;52.032;4.314;2022-07-22T03:09:07;17.00;99.90
18160;DHT22;9205;52.032;4.314;2022-07-22T03:11:36;16.90;99.90
18160;DHT22;9205;52.032;4.314;2022-07-22T03:14:04;17.00;99.90
18160;DHT22;9205;52.032;4.314;2022-07-22T03:16:32;16.90;99.90
18160;DHT22;9205;52.032;4.314;2022-07-22T03:19:01;16.90;99.90
18160;DHT22;9205;52.032;4.314;2022-07-22T03:21:29;16.90;99.90
18160;DHT22;9205;52.032;4.314;2022-07-22T03:23:56;16.80;99.90
18160;DHT22;9205;52.032;4.314;2022-07-22T03:26:23;16.70;99.90
18160;DHT22;9205;52.032;4.314;2022-07-22T03:28:51;16.70;99.90
18160;DHT22;9205;52.032;4.314;2022-07-22T03:31:19;16.70;99.90
18160;DHT22;9205;52.032;4.314;2022-07-22T03:33:46;16.70;99.90
18160;DHT22;9205;52.032;4.314;2022-07-22T03:36:15;16.70;99.90
18160;DHT22;9205;52.032;4.314;2022-07-22T03:38:45;16.60;99.90
18160;DHT22;9205;52.032;4.314;2022-07-22T03:41:12;16.70;99.90
18160;DHT22;9205;52.032;4.314;2022-07-22T03:43:40;16.70;99.90
18160;DHT22;9205;52.032;4.314;2022-07-22T03:46:07;16.70;99.90
18160;DHT22;9205;52.032;4.314;2022-07-22T03:48:34;16.70;99.90
18160;DHT22;9205;52.032;4.314;2022-07-22T03:51:02;16.80;99.90
18160;DHT22;9205;52.032;4.314;2022-07-22T03:53:31;16.80;99.90
18160;DHT22;9205;52.032;4.314;2022-07-22T03:56:01;16.80;99.90
18160;DHT22;9205;52.032;4.314;2022-07-22T03:58:30;16.90;99.90
18160;DHT22;9205;52.032;4.314;2022-07-22T04:00:58;16.90;99.90
18160;DHT22;9205;52.032;4.314;2022-07-22T04:03:25;16.90;99.90
18160;DHT22;9205;52.032;4.314;2022-07-22T04:06:14;16.90;99.90
18160;DHT22;9205;52.032;4.314;2022-07-22T04:08:50;16.90;99.90
18160;DHT22;9205;52.032;4.314;2022-07-22T04:11:17;16.90;99.90
18160;DHT22;9205;52.032;4.314;2022-07-22T04:13:45;17.00;99.90
18160;DHT22;9205;52.032;4.314;2022-07-22T04:16:13;17.00;99.90
18160;DHT22;9205;52.032;4.314;2022-07-22T04:18:49;17.00;99.90
18160;DHT22;9205;52.032;4.314;2022-07-22T04:21:24;17.00;99.90
18160;DHT22;9205;52.032;4.314;2022-07-22T04:23:55;17.00;99.90
18160;DHT22;9205;52.032;4.314;2022-07-22T04:26:27;17.10;99.90
18160;DHT22;9205;52.032;4.314;2022-07-22T04:28:54;17.10;99.90
18160;DHT22;9205;52.032;4.314;2022-07-22T04:31:22;17.10;99.90
18160;DHT22;9205;52.032;4.314;2022-07-22T04:33:56;17.10;99.90
18160;DHT22;9205;52.032;4.314;2022-07-22T04:36:23;17.20;99.90
18160;DHT22;9205;52.032;4.314;2022-07-22T04:38:52;17.20;99.90
18160;DHT22;9205;52.032;4.314;2022-07-22T04:41:21;17.20;99.90
18160;DHT22;9205;52.032;4.314;2022-07-22T04:43:49;17.20;99.90
18160;DHT22;9205;52.032;4.314;2022-07-22T04:46:21;17.30;99.90
18160;DHT22;9205;52.032;4.314;2022-07-22T04:48:48;17.30;99.90
18160;DHT22;9205;52.032;4.314;2022-07-22T04:51:15;17.30;99.90
18160;DHT22;9205;52.032;4.314;2022-07-22T04:53:45;17.40;99.90
18160;DHT22;9205;52.032;4.314;2022-07-22T04:56:12;17.30;99.90
18160;DHT22;9205;52.032;4.314;2022-07-22T04:58:41;17.40;99.90
18160;DHT22;9205;52.032;4.314;2022-07-22T05:01:09;17.40;99.90
18160;DHT22;9205;52.032;4.314;2022-07-22T05:03:38;17.50;99.90
18160;DHT22;9205;52.032;4.314;2022-07-22T05:06:05;17.50;99.90
18160;DHT22;9205;52.032;4.314;2022-07-22T05:08:36;17.50;99.90
18160;DHT22;9205;52.032;4.314;2022-07-22T05:11:04;17.50;99.90
18160;DHT22;9205;52.032;4.314;2022-07-22T05:13:31;17.60;99.90
18160;DHT22;9205;52.032;4.314;2022-07-22T05:16:04;17.60;99.90
18160;DHT22;9205;52.032;4.314;2022-07-22T05:18:34;17.60;99.90
18160;DHT22;9205;52.032;4.314;2022-07-22T05:21:01;17.60;99.90
18160;DHT22;9205;52.032;4.314;2022-07-22T05:23:29;17.60;99.90
18160;DHT22;9205;52.032;4.314;2022-07-22T05:25:56;17.50;99.90
18160;DHT22;9205;52.032;4.314;2022-07-22T05:28:23;17.60;99.90
18160;DHT22;9205;52.032;4.314;2022-07-22T05:30:50;17.50;99.90
18160;DHT22;9205;52.032;4.314;2022-07-22T05:33:20;17.60;99.90
18160;DHT22;9205;52.032;4.314;2022-07-22T05:36:03;17.60;99.90
18160;DHT22;9205;52.032;4.314;2022-07-22T05:38:42;17.60;99.90
18160;DHT22;9205;52.032;4.314;2022-07-22T05:41:10;17.70;99.90
18160;DHT22;9205;52.032;4.314;2022-07-22T05:43:38;17.60;99.90
18160;DHT22;9205;52.032;4.314;2022-07-22T05:46:06;17.70;99.90
18160;DHT22;9205;52.032;4.314;2022-07-22T05:48:35;17.80;99.90
18160;DHT22;9205;52.032;4.314;2022-07-22T05:51:02;17.80;99.90
18160;DHT22;9205;52.032;4.314;2022-07-22T05:53:31;17.80;99.90
18160;DHT22;9205;52.032;4.314;2022-07-22T05:55:58;17.80;99.90
18160;DHT22;9205;52.032;4.314;2022-07-22T05:58:25;17.90;99.90
18160;DHT22;9205;52.032;4.314;2022-07-22T06:00:53;17.80;99.90
18160;DHT22;9205;52.032;4.314;2022-07-22T06:03:21;17.80;99.90
18160;DHT22;9205;52.032;4.314;2022-07-22T06:05:50;17.80;99.90
18160;DHT22;9205;52.032;4.314;2022-07-22T06:08:18;17.80;99.90
18160;DHT22;9205;52.032;4.314;2022-07-22T06:10:48;17.80;99.90
18160;DHT22;9205;52.032;4.314;2022-07-22T06:13:16;17.90;99.90
18160;DHT22;9205;52.032;4.314;2022-07-22T06:15:43;17.90;99.90
18160;DHT22;9205;52.032;4.314;2022-07-22T06:18:11;17.90;99.90
18160;DHT22;9205;52.032;4.314;2022-07-22T06:20:38;18.00;99.90
18160;DHT22;9205;52.032;4.314;2022-07-22T06:23:08;18.00;99.90
18160;DHT22;9205;52.032;4.314;2022-07-22T06:25:35;18.10;99.90
18160;DHT22;9205;52.032;4.314;2022-07-22T06:28:03;18.10;99.90
18160;DHT22;9205;52.032;4.314;2022-07-22T06:30:31;18.10;99.90
18160;DHT22;9205;52.032;4.314;2022-07-22T06:32:59;18.10;99.90
18160;DHT22;9205;52.032;4.314;2022-07-22T06:35:26;18.10;99.90
18160;DHT22;9205;52.032;4.314;2022-07-22T06:37:54;18.20;99.90
18160;DHT22;9205;52.032;4.314;2022-07-22T06:40:24;18.10;99.90
18160;DHT22;9205;52.032;4.314;2022-07-22T06:43:15;18.10;99.90
18160;DHT22;9205;52.032;4.314;2022-07-22T06:46:15;18.20;99.90
18160;DHT22;9205;52.032;4.314;2022-07-22T06:48:47;18.20;99.90
18160;DHT22;9205;52.032;4.314;2022-07-22T06:51:14;18.30;99.90
18160;DHT22;9205;52.032;4.314;2022-07-22T06:53:42;18.30;99.90
18160;DHT22;9205;52.032;4.314;2022-07-22T06:56:11;18.30;99.90
18160;DHT22;9205;52.032;4.314;2022-07-22T06:58:38;18.20;99.90
18160;DHT22;9205;52.032;4.314;2022-07-22T07:01:06;18.20;99.90
18160;DHT22;9205;52.032;4.314;2022-07-22T07:03:59;18.20;99.90
18160;DHT22;9205;52.032;4.314;2022-07-22T07:06:27;18.30;99.90
18160;DHT22;9205;52.032;4.314;2022-07-22T07:09:14;18.30;99.90
18160;DHT22;9205;52.032;4.314;2022-07-22T07:11:49;18.30;99.90
18160;DHT22;9205;52.032;4.314;2022-07-22T07:14:36;18.30;99.90
18160;DHT22;9205;52.032;4.314;2022-07-22T07:17:04;18.40;99.90
18160;DHT22;9205;52.032;4.314;2022-07-22T07:19:31;18.30;99.90
18160;DHT22;9205;52.032;4.314;2022-07-22T07:21:58;18.40;99.90
18160;DHT22;9205;52.032;4.314;2022-07-22T07:24:25;18.40;99.90
18160;DHT22;9205;52.032;4.314;2022-07-22T07:26:54;18.40;99.90
18160;DHT22;9205;52.032;4.314;2022-07-22T07:29:22;18.50;99.90
18160;DHT22;9205;52.032;4.314;2022-07-22T07:31:49;18.50;99.90
18160;DHT22;9205;52.032;4.314;2022-07-22T07:34:17;18.50;99.90
18160;DHT22;9205;52.032;4.314;2022-07-22T07:36:44;18.60;99.90
18160;DHT22;9205;52.032;4.314;2022-07-22T07:39:14;18.60;99.90
18160;DHT22;9205;52.032;4.314;2022-07-22T07:41:41;18.60;99.90
18160;DHT22;9205;52.032;4.314;2022-07-22T07:44:12;18.60;99.90
18160;DHT22;9205;52.032;4.314;2022-07-22T07:46:41;18.70;99.90
18160;DHT22;9205;52.032;4.314;2022-07-22T07:49:08;18.70;99.90
18160;DHT22;9205;52.032;4.314;2022-07-22T07:51:36;18.70;99.90
18160;DHT22;9205;52.032;4.314;2022-07-22T07:54:03;18.70;99.90
18160;DHT22;9205;52.032;4.314;2022-07-22T07:56:31;18.70;99.90
18160;DHT22;9205;52.032;4.314;2022-07-22T07:58:58;18.70;99.90
18160;DHT22;9205;52.032;4.314;2022-07-22T08:01:27;18.60;99.90
18160;DHT22;9205;52.032;4.314;2022-07-22T08:03:54;18.70;99.90
18160;DHT22;9205;52.032;4.314;2022-07-22T08:06:21;18.70;99.90
18160;DHT22;9205;52.032;4.314;2022-07-22T08:08:49;18.80;99.90
18160;DHT22;9205;52.032;4.314;2022-07-22T08:11:22;18.80;99.90
18160;DHT22;9205;52.032;4.314;2022-07-22T08:14:16;19.00;99.90
18160;DHT22;9205;52.032;4.314;2022-07-22T08:17:01;19.00;99.90
18160;DHT22;9205;52.032;4.314;2022-07-22T08:19:28;19.10;99.90
18160;DHT22;9205;52.032;4.314;2022-07-22T08:21:56;19.10;99.90
18160;DHT22;9205;52.032;4.314;2022-07-22T08:24:42;19.00;99.90
18160;DHT22;9205;52.032;4.314;2022-07-22T08:27:14;19.00;99.90
18160;DHT22;9205;52.032;4.314;2022-07-22T08:29:41;19.00;99.90
18160;DHT22;9205;52.032;4.314;2022-07-22T08:32:10;19.10;99.90
18160;DHT22;9205;52.032;4.314;2022-07-22T08:34:37;19.10;99.90
18160;DHT22;9205;52.032;4.314;2022-07-22T08:37:06;19.20;99.90
18160;DHT22;9205;52.032;4.314;2022-07-22T08:39:33;19.10;99.90
18160;DHT22;9205;52.032;4.314;2022-07-22T08:42:01;19.20;99.90
18160;DHT22;9205;52.032;4.314;2022-07-22T08:44:30;19.30;99.90
18160;DHT22;9205;52.032;4.314;2022-07-22T08:46:59;19.20;99.90
18160;DHT22;9205;52.032;4.314;2022-07-22T08:49:47;19.20;99.90
18160;DHT22;9205;52.032;4.314;2022-07-22T08:52:29;19.10;99.90
18160;DHT22;9205;52.032;4.314;2022-07-22T08:54:56;19.00;99.90
18160;DHT22;9205;52.032;4.314;2022-07-22T08:57:23;19.10;99.90
18160;DHT22;9205;52.032;4.314;2022-07-22T08:59:52;19.10;99.90
18160;DHT22;9205;52.032;4.314;2022-07-22T09:02:21;19.20;99.90
18160;DHT22;9205;52.032;4.314;2022-07-22T09:04:55;19.30;99.90
18160;DHT22;9205;52.032;4.314;2022-07-22T09:07:26;19.50;99.90
18160;DHT22;9205;52.032;4.314;2022-07-22T09:09:59;19.60;99.90
18160;DHT22;9205;52.032;4.314;2022-07-22T09:12:53;19.60;99.90
18160;DHT22;9205;52.032;4.314;2022-07-22T09:15:47;19.70;99.90
18160;DHT22;9205;52.032;4.314;2022-07-22T09:18:45;19.80;99.90
18160;DHT22;9205;52.032;4.314;2022-07-22T09:21:34;19.70;99.90
18160;DHT22;9205;52.032;4.314;2022-07-22T09:24:28;19.60;99.90
18160;DHT22;9205;52.032;4.314;2022-07-22T09:27:06;19.50;99.90
18160;DHT22;9205;52.032;4.314;2022-07-22T09:29:38;19.40;99.90
18160;DHT22;9205;52.032;4.314;2022-07-22T09:32:10;19.40;99.90
18160;DHT22;9205;52.032;4.314;2022-07-22T09:35:05;19.40;99.90
18160;DHT22;9205;52.032;4.314;2022-07-22T09:37:51;19.40;99.90
18160;DHT22;9205;52.032;4.314;2022-07-22T09:40:22;19.40;99.90
18160;DHT22;9205;52.032;4.314;2022-07-22T09:42:53;19.40;99.90
18160;DHT22;9205;52.032;4.314;2022-07-22T09:45:22;19.50;99.90
18160;DHT22;9205;52.032;4.314;2022-07-22T09:47:53;19.50;99.90
18160;DHT22;9205;52.032;4.314;2022-07-22T09:50:48;19.50;99.90
18160;DHT22;9205;52.032;4.314;2022-07-22T09:53:29;19.60;99.90
18160;DHT22;9205;52.032;4.314;2022-07-22T09:56:09;19.60;99.90
18160;DHT22;9205;52.032;4.314;2022-07-22T09:58:38;19.70;99.90
18160;DHT22;9205;52.032;4.314;2022-07-22T10:01:14;19.70;99.90
18160;DHT22;9205;52.032;4.314;2022-07-22T10:03:45;19.70;99.90
18160;DHT22;9205;52.032;4.314;2022-07-22T10:06:17;19.80;99.90
18160;DHT22;9205;52.032;4.314;2022-07-22T10:08:46;19.90;99.90
18160;DHT22;9205;52.032;4.314;2022-07-22T10:11:14;20.00;99.90
18160;DHT22;9205;52.032;4.314;2022-07-22T10:13:42;20.10;99.90
18160;DHT22;9205;52.032;4.314;2022-07-22T10:16:11;20.20;99.90
18160;DHT22;9205;52.032;4.314;2022-07-22T10:18:44;20.20;99.90
18160;DHT22;9205;52.032;4.314;2022-07-22T10:21:13;20.10;99.90
18160;DHT22;9205;52.032;4.314;2022-07-22T10:24:10;20.30;99.90
18160;DHT22;9205;52.032;4.314;2022-07-22T10:26:49;20.30;99.90
18160;DHT22;9205;52.032;4.314;2022-07-22T10:29:25;20.40;99.90
18160;DHT22;9205;52.032;4.314;2022-07-22T10:32:25;20.30;99.90
18160;DHT22;9205;52.032;4.314;2022-07-22T10:35:21;20.30;99.90
18160;DHT22;9205;52.032;4.314;2022-07-22T10:37:52;20.30;99.90
18160;DHT22;9205;52.032;4.314;2022-07-22T10:40:24;20.30;99.90
18160;DHT22;9205;52.032;4.314;2022-07-22T10:43:09;20.40;99.90
18160;DHT22;9205;52.032;4.314;2022-07-22T10:45:40;20.50;99.90
18160;DHT22;9205;52.032;4.314;2022-07-22T10:48:10;20.50;99.90
18160;DHT22;9205;52.032;4.314;2022-07-22T10:50:48;20.60;99.90
18160;DHT22;9205;52.032;4.314;2022-07-22T10:53:47;20.70;99.90
18160;DHT22;9205;52.032;4.314;2022-07-22T10:56:25;21.10;99.90
18160;DHT22;9205;52.032;4.314;2022-07-22T10:59:01;21.60;99.90
18160;DHT22;9205;52.032;4.314;2022-07-22T11:01:36;21.70;99.90
18160;DHT22;9205;52.032;4.314;2022-07-22T11:04:10;21.20;99.90
18160;DHT22;9205;52.032;4.314;2022-07-22T11:06:41;20.70;99.90
18160;DHT22;9205;52.032;4.314;2022-07-22T11:09:11;20.50;99.90
18160;DHT22;9205;52.032;4.314;2022-07-22T11:11:43;20.50;99.90
18160;DHT22;9205;52.032;4.314;2022-07-22T11:14:15;20.90;99.90
18160;DHT22;9205;52.032;4.314;2022-07-22T11:16:44;21.10;99.90
18160;DHT22;9205;52.032;4.314;2022-07-22T11:19:13;20.90;99.90
18160;DHT22;9205;52.032;4.314;2022-07-22T11:21:40;21.30;99.90
18160;DHT22;9205;52.032;4.314;2022-07-22T11:24:08;21.20;99.90
18160;DHT22;9205;52.032;4.314;2022-07-22T11:26:45;21.00;99.90
18160;DHT22;9205;52.032;4.314;2022-07-22T11:29:16;21.00;99.90
18160;DHT22;9205;52.032;4.314;2022-07-22T11:31:45;20.90;99.90
18160;DHT22;9205;52.032;4.314;2022-07-22T11:34:13;21.00;99.90
18160;DHT22;9205;52.032;4.314;2022-07-22T11:36:44;21.50;99.90
18160;DHT22;9205;52.032;4.314;2022-07-22T11:39:13;21.90;99.90
18160;DHT22;9205;52.032;4.314;2022-07-22T11:41:46;21.90;99.90
18160;DHT22;9205;52.032;4.314;2022-07-22T11:44:18;22.00;99.90
18160;DHT22;9205;52.032;4.314;2022-07-22T11:46:46;21.90;99.90
18160;DHT22;9205;52.032;4.314;2022-07-22T11:49:15;21.70;99.90
18160;DHT22;9205;52.032;4.314;2022-07-22T11:51:43;21.80;99.90
18160;DHT22;9205;52.032;4.314;2022-07-22T11:54:11;21.70;99.90
18160;DHT22;9205;52.032;4.314;2022-07-22T11:56:38;21.70;99.90
18160;DHT22;9205;52.032;4.314;2022-07-22T11:59:11;21.70;99.90
18160;DHT22;9205;52.032;4.314;2022-07-22T12:01:40;21.90;99.90
18160;DHT22;9205;52.032;4.314;2022-07-22T12:04:09;22.10;99.90
18160;DHT22;9205;52.032;4.314;2022-07-22T12:06:40;22.10;99.90
18160;DHT22;9205;52.032;4.314;2022-07-22T12:09:10;22.20;99.90
18160;DHT22;9205;52.032;4.314;2022-07-22T12:11:40;22.10;99.90
18160;DHT22;9205;52.032;4.314;2022-07-22T12:14:15;22.00;99.90
18160;DHT22;9205;52.032;4.314;2022-07-22T12:16:52;21.90;99.90
18160;DHT22;9205;52.032;4.314;2022-07-22T12:19:21;21.80;99.90
18160;DHT22;9205;52.032;4.314;2022-07-22T12:21:54;21.70;99.90
18160;DHT22;9205;52.032;4.314;2022-07-22T12:24:26;21.90;99.90
18160;DHT22;9205;52.032;4.314;2022-07-22T12:26:56;22.00;99.90
18160;DHT22;9205;52.032;4.314;2022-07-22T12:29:29;22.10;99.90
18160;DHT22;9205;52.032;4.314;2022-07-22T12:32:09;22.20;99.90
18160;DHT22;9205;52.032;4.314;2022-07-22T12:34:39;22.10;99.90
18160;DHT22;9205;52.032;4.314;2022-07-22T12:37:14;21.80;99.90
18160;DHT22;9205;52.032;4.314;2022-07-22T12:39:57;21.70;99.90
18160;DHT22;9205;52.032;4.314;2022-07-22T12:42:26;21.70;99.90
18160;DHT22;9205;52.032;4.314;2022-07-22T12:45:01;21.70;99.90
18160;DHT22;9205;52.032;4.314;2022-07-22T12:47:46;21.80;99.90
18160;DHT22;9205;52.032;4.314;2022-07-22T12:50:16;21.90;99.90
18160;DHT22;9205;52.032;4.314;2022-07-22T12:52:45;21.90;99.90
18160;DHT22;9205;52.032;4.314;2022-07-22T12:55:12;22.00;99.90
18160;DHT22;9205;52.032;4.314;2022-07-22T12:57:39;22.00;99.90
18160;DHT22;9205;52.032;4.314;2022-07-22T13:00:09;22.10;99.90
18160;DHT22;9205;52.032;4.314;2022-07-22T13:02:37;22.20;99.90
18160;DHT22;9205;52.032;4.314;2022-07-22T13:05:05;22.20;99.90
18160;DHT22;9205;52.032;4.314;2022-07-22T13:07:32;22.30;99.90
18160;DHT22;9205;52.032;4.314;2022-07-22T13:09:59;22.00;99.90
18160;DHT22;9205;52.032;4.314;2022-07-22T13:12:27;21.90;99.90
18160;DHT22;9205;52.032;4.314;2022-07-22T13:14:54;21.80;99.90
18160;DHT22;9205;52.032;4.314;2022-07-22T13:17:23;21.80;99.90
18160;DHT22;9205;52.032;4.314;2022-07-22T13:19:50;21.70;99.90
18160;DHT22;9205;52.032;4.314;2022-07-22T13:22:17;21.70;99.90
18160;DHT22;9205;52.032;4.314;2022-07-22T13:24:44;21.70;99.90
18160;DHT22;9205;52.032;4.314;2022-07-22T13:27:11;21.50;99.90
18160;DHT22;9205;52.032;4.314;2022-07-22T13:29:38;21.50;99.90
18160;DHT22;9205;52.032;4.314;2022-07-22T13:32:06;21.50;99.90
18160;DHT22;9205;52.032;4.314;2022-07-22T13:34:35;21.60;99.90
18160;DHT22;9205;52.032;4.314;2022-07-22T13:37:02;21.70;99.90
18160;DHT22;9205;52.032;4.314;2022-07-22T13:39:29;21.70;99.90
18160;DHT22;9205;52.032;4.314;2022-07-22T13:41:56;21.90;99.90
18160;DHT22;9205;52.032;4.314;2022-07-22T13:44:23;22.00;99.90
18160;DHT22;9205;52.032;4.314;2022-07-22T13:46:51;21.80;99.90
18160;DHT22;9205;52.032;4.314;2022-07-22T13:49:18;21.70;99.90
18160;DHT22;9205;52.032;4.314;2022-07-22T13:51:46;21.50;99.90
18160;DHT22;9205;52.032;4.314;2022-07-22T13:54:14;21.50;99.90
18160;DHT22;9205;52.032;4.314;2022-07-22T13:56:41;21.60;99.90
18160;DHT22;9205;52.032;4.314;2022-07-22T13:59:10;21.60;99.90
18160;DHT22;9205;52.032;4.314;2022-07-22T14:01:37;21.70;99.90
18160;DHT22;9205;52.032;4.314;2022-07-22T14:04:04;21.70;99.90
18160;DHT22;9205;52.032;4.314;2022-07-22T14:06:34;21.70;99.90
18160;DHT22;9205;52.032;4.314;2022-07-22T14:09:04;21.70;99.90
18160;DHT22;9205;52.032;4.314;2022-07-22T14:11:31;21.50;99.90
18160;DHT22;9205;52.032;4.314;2022-07-22T14:13:59;21.50;99.90
18160;DHT22;9205;52.032;4.314;2022-07-22T14:16:26;21.40;99.90
18160;DHT22;9205;52.032;4.314;2022-07-22T14:19:05;21.50;99.90
18160;DHT22;9205;52.032;4.314;2022-07-22T14:21:33;21.50;99.90
18160;DHT22;9205;52.032;4.314;2022-07-22T14:24:04;21.50;99.90
18160;DHT22;9205;52.032;4.314;2022-07-22T14:26:33;21.40;99.90
18160;DHT22;9205;52.032;4.314;2022-07-22T14:29:02;21.30;99.90
18160;DHT22;9205;52.032;4.314;2022-07-22T14:31:30;21.30;99.90
18160;DHT22;9205;52.032;4.314;2022-07-22T14:33:59;21.40;99.90
18160;DHT22;9205;52.032;4.314;2022-07-22T14:36:28;21.30;99.90
18160;DHT22;9205;52.032;4.314;2022-07-22T14:38:55;21.40;99.90
18160;DHT22;9205;52.032;4.314;2022-07-22T14:41:23;21.30;99.90
18160;DHT22;9205;52.032;4.314;2022-07-22T14:43:51;21.30;99.90
18160;DHT22;9205;52.032;4.314;2022-07-22T14:46:18;21.20;99.90
18160;DHT22;9205;52.032;4.314;2022-07-22T14:48:45;21.20;99.90
18160;DHT22;9205;52.032;4.314;2022-07-22T14:51:14;21.30;99.90
18160;DHT22;9205;52.032;4.314;2022-07-22T14:53:41;21.30;99.90
18160;DHT22;9205;52.032;4.314;2022-07-22T14:56:08;21.10;99.90
18160;DHT22;9205;52.032;4.314;2022-07-22T14:58:37;21.10;99.90
18160;DHT22;9205;52.032;4.314;2022-07-22T15:01:04;21.10;99.90
18160;DHT22;9205;52.032;4.314;2022-07-22T15:03:31;21.20;99.90
18160;DHT22;9205;52.032;4.314;2022-07-22T15:05:58;21.10;99.90
18160;DHT22;9205;52.032;4.314;2022-07-22T15:08:25;21.00;99.90
18160;DHT22;9205;52.032;4.314;2022-07-22T15:10:52;21.00;99.90
18160;DHT22;9205;52.032;4.314;2022-07-22T15:13:20;20.80;99.90
18160;DHT22;9205;52.032;4.314;2022-07-22T15:15:48;20.90;99.90
18160;DHT22;9205;52.032;4.314;2022-07-22T15:18:15;21.00;99.90
18160;DHT22;9205;52.032;4.314;2022-07-22T15:20:42;21.10;99.90
18160;DHT22;9205;52.032;4.314;2022-07-22T15:23:09;21.10;99.90
18160;DHT22;9205;52.032;4.314;2022-07-22T15:25:40;21.10;99.90
18160;DHT22;9205;52.032;4.314;2022-07-22T15:28:10;21.10;99.90
18160;DHT22;9205;52.032;4.314;2022-07-22T15:30:37;21.00;99.90
18160;DHT22;9205;52.032;4.314;2022-07-22T15:33:09;20.90;99.90
18160;DHT22;9205;52.032;4.314;2022-07-22T15:35:36;20.90;99.90
18160;DHT22;9205;52.032;4.314;2022-07-22T15:38:04;20.80;99.90
18160;DHT22;9205;52.032;4.314;2022-07-22T15:40:32;20.80;99.90
18160;DHT22;9205;52.032;4.314;2022-07-22T15:42:59;20.90;99.90
18160;DHT22;9205;52.032;4.314;2022-07-22T15:45:26;20.80;99.90
18160;DHT22;9205;52.032;4.314;2022-07-22T15:47:56;20.70;99.90
18160;DHT22;9205;52.032;4.314;2022-07-22T15:50:27;20.80;99.90
18160;DHT22;9205;52.032;4.314;2022-07-22T15:52:55;20.80;99.90
18160;DHT22;9205;52.032;4.314;2022-07-22T15:55:23;20.70;99.90
18160;DHT22;9205;52.032;4.314;2022-07-22T15:57:50;20.70;99.90
18160;DHT22;9205;52.032;4.314;2022-07-22T16:00:35;20.80;99.90
18160;DHT22;9205;52.032;4.314;2022-07-22T16:03:03;20.70;99.90
18160;DHT22;9205;52.032;4.314;2022-07-22T16:05:31;20.70;99.90